Time;durP1;ratioP1;P1;durP2;ratioP2;P2;SDS_P1;SDS_P2;PMS_P1;PMS_P2;Temp;Humidity;BMP_temperature;BMP_pressure;BME280_temperature;BME280_humidity;BME280_pressure;Samples;Min_cycle;Max_cycle;Signal;HPM_P1;HPM_P2
2023/04/15 00:00:57;;;;;;;1.40;1.40;;;;;;;19.85;50.79;96399.41;4954193;28;20250;-30
2023/04/15 00:03:24;;;;;;;1.40;1.30;;;;;;;19.84;50.85;96394.28;4942879;28;20341;-29
2023/04/15 00:05:51;;;;;;;1.60;1.50;;;;;;;19.85;51.24;96396.88;4955331;29;20620;-30
2023/04/15 00:08:18;;;;;;;1.40;1.30;;;;;;;19.85;51.35;96396.88;4954586;28;20205;-30
2023/04/15 00:10:45;;;;;;;1.70;1.60;;;;;;;19.85;50.81;96401.97;4948030;28;20232;-30
2023/04/15 00:13:12;;;;;;;1.57;1.47;;;;;;;19.84;50.77;96401.94;4947039;28;20282;-30
2023/04/15 00:15:38;;;;;;;4.80;1.40;;;;;;;19.77;50.80;96380.56;4955123;29;20583;-28
2023/04/15 00:18:06;;;;;;;1.43;1.33;;;;;;;19.86;51.25;96395.16;4944512;29;20234;-30
2023/04/15 00:20:34;;;;;;;1.57;1.47;;;;;;;19.85;51.01;96390.91;4950089;28;20271;-28
2023/04/15 00:23:01;;;;;;;1.30;1.20;;;;;;;19.86;50.83;96396.03;4946687;28;20288;-30
2023/04/15 00:25:28;;;;;;;1.50;1.40;;;;;;;19.85;50.93;96385.78;4948392;28;20215;-30
2023/04/15 00:27:54;;;;;;;1.50;1.40;;;;;;;19.76;50.87;96368.66;4943934;29;20632;-30
2023/04/15 00:30:22;;;;;;;1.43;1.33;;;;;;;19.71;51.09;96362.59;4936357;29;20259;-28
2023/04/15 00:32:49;;;;;;;1.50;1.40;;;;;;;19.86;51.32;96382.41;4948102;28;20267;-30
2023/04/15 00:35:16;;;;;;;1.30;1.20;;;;;;;19.86;51.24;96369.66;4954758;28;20196;-28
2023/04/15 00:37:42;;;;;;;1.47;1.37;;;;;;;19.86;51.04;96375.63;4942718;29;20231;-29
2023/04/15 00:40:12;;;;;;;1.13;1.13;;;;;;;19.85;50.84;96363.72;4950289;28;20249;-29
2023/04/15 00:42:39;;;;;;;1.27;1.23;;;;;;;19.86;50.97;96356.91;4951627;29;20235;-30
2023/04/15 00:45:07;;;;;;;1.43;1.33;;;;;;;19.86;51.01;96355.22;4953048;28;20650;-30
2023/04/15 00:47:36;;;;;;;1.30;1.20;;;;;;;19.81;50.89;96353.44;4931968;29;20212;-29
2023/04/15 00:50:02;;;;;;;1.43;1.33;;;;;;;19.82;50.91;96343.28;4937213;29;20231;-30
2023/04/15 00:52:29;;;;;;;1.20;1.10;;;;;;;19.85;50.97;96343.31;4947869;28;20664;-30
2023/04/15 00:54:56;;;;;;;1.40;1.30;;;;;;;19.85;50.87;96347.56;4941805;29;20295;-29
2023/04/15 00:57:23;;;;;;;1.50;1.40;;;;;;;19.86;51.27;96346.72;4937627;29;20207;-30
2023/04/15 00:59:50;;;;;;;1.50;1.40;;;;;;;19.85;50.85;96353.53;4952136;28;20231;-30
2023/04/15 01:02:16;;;;;;;2.30;1.60;;;;;;;19.86;50.68;96349.25;4950179;29;20192;-29
2023/04/15 01:04:43;;;;;;;2.73;1.60;;;;;;;19.85;51.35;96358.63;4933280;29;20260;-30
2023/04/15 01:07:10;;;;;;;1.47;1.37;;;;;;;19.85;50.23;96355.19;4943141;29;20205;-28
2023/04/15 01:09:36;;;;;;;1.60;1.50;;;;;;;19.84;50.69;96356.88;4948679;29;20247;-30
2023/04/15 01:12:03;;;;;;;1.50;1.40;;;;;;;19.85;50.84;96360.31;4953437;28;20764;-30
2023/04/15 01:14:30;;;;;;;1.40;1.30;;;;;;;19.84;51.04;96356.03;4945926;29;20291;-30
2023/04/15 01:16:57;;;;;;;1.40;1.30;;;;;;;19.80;51.16;96341.50;4934778;29;20208;-30
2023/04/15 01:19:24;;;;;;;1.60;1.50;;;;;;;19.78;50.97;96344.03;4933733;29;20201;-30
2023/04/15 01:21:51;;;;;;;1.60;1.50;;;;;;;19.85;50.39;96347.56;4912404;29;20220;-29
2023/04/15 01:24:18;;;;;;;1.50;1.40;;;;;;;19.84;50.90;96348.41;4935755;29;20638;-30
2023/04/15 01:26:45;;;;;;;1.50;1.40;;;;;;;19.84;50.88;96349.22;4943356;29;20604;-30
2023/04/15 01:29:12;;;;;;;1.50;1.40;;;;;;;19.85;51.09;96345.00;4950295;29;20280;-30
2023/04/15 01:31:38;;;;;;;1.30;1.30;;;;;;;19.85;50.83;96343.31;4953717;29;20224;-30
2023/04/15 01:34:05;;;;;;;1.67;1.57;;;;;;;19.83;51.10;96323.72;4944333;29;20232;-30
2023/04/15 01:36:32;;;;;;;1.53;1.43;;;;;;;19.86;50.47;96331.41;4942791;29;20663;-30
2023/04/15 01:38:58;;;;;;;1.63;1.53;;;;;;;19.85;50.59;96333.13;4940258;28;20204;-29
2023/04/15 01:41:26;;;;;;;1.57;1.47;;;;;;;19.85;51.06;96327.16;4945998;28;20607;-30
2023/04/15 01:43:53;;;;;;;1.40;1.30;;;;;;;19.86;50.93;96328.88;4952378;29;20200;-30
2023/04/15 01:46:19;;;;;;;1.40;1.30;;;;;;;19.85;50.92;96332.25;4949040;29;20327;-30
2023/04/15 01:48:46;;;;;;;1.43;1.33;;;;;;;19.86;51.10;96344.16;4953076;29;20204;-30
2023/04/15 01:51:13;;;;;;;1.40;1.30;;;;;;;19.85;51.29;96330.56;4943978;28;20270;-30
2023/04/15 01:53:39;;;;;;;1.50;1.30;;;;;;;19.86;50.59;96333.97;4945902;28;20243;-29
2023/04/15 01:56:06;;;;;;;1.17;1.10;;;;;;;19.86;51.02;96346.72;4952971;29;20242;-29
2023/04/15 01:58:33;;;;;;;1.50;1.40;;;;;;;19.84;51.37;96346.69;4953543;28;20261;-30
2023/04/15 02:01:01;;;;;;;1.10;1.10;;;;;;;19.85;50.93;96348.44;4953193;28;20221;-29
2023/04/15 02:03:28;;;;;;;1.30;1.20;;;;;;;19.86;50.20;96351.81;4945103;29;20204;-29
2023/04/15 02:05:55;;;;;;;1.30;1.20;;;;;;;19.86;50.88;96354.34;4946642;29;20592;-29
2023/04/15 02:08:22;;;;;;;1.50;1.40;;;;;;;19.86;50.97;96360.31;4949185;29;20200;-30
2023/04/15 02:10:48;;;;;;;1.77;1.50;;;;;;;19.86;51.04;96357.78;4927878;29;20255;-28
2023/04/15 02:13:15;;;;;;;1.60;1.50;;;;;;;19.85;50.53;96350.97;4947244;29;20257;-28
2023/04/15 02:15:48;;;;;;;1.40;1.30;;;;;;;19.86;50.94;96364.56;4945519;29;20283;-30
2023/04/15 02:18:15;;;;;;;1.57;1.47;;;;;;;19.85;50.93;96358.63;4936018;29;20204;-29
2023/04/15 02:20:45;;;;;;;1.53;1.43;;;;;;;19.85;51.21;96356.06;4943546;29;20259;-28
2023/04/15 02:23:12;;;;;;;1.40;1.30;;;;;;;19.85;50.96;96361.16;4938527;28;20210;-29
2023/04/15 02:25:39;;;;;;;1.40;1.30;;;;;;;19.84;51.19;96363.69;4945873;29;20723;-30
2023/04/15 02:28:05;;;;;;;1.40;1.30;;;;;;;19.85;50.91;96366.28;4942606;29;20831;-30
2023/04/15 02:30:32;;;;;;;1.60;1.50;;;;;;;19.85;50.93;96358.63;4944264;28;20225;-29
2023/04/15 02:32:59;;;;;;;1.50;1.40;;;;;;;19.85;51.01;96362.84;4951004;29;20284;-30
2023/04/15 02:35:26;;;;;;;1.60;1.50;;;;;;;19.78;51.57;96353.38;4943772;29;20660;-30
2023/04/15 02:37:53;;;;;;;1.33;1.23;;;;;;;19.82;50.99;96360.25;4948185;29;20223;-29
2023/04/15 02:40:19;;;;;;;1.80;1.60;;;;;;;19.84;51.07;96364.53;4937483;28;20307;-30
2023/04/15 02:42:46;;;;;;;1.67;1.57;;;;;;;19.80;50.97;96356.81;4944835;29;20288;-28
2023/04/15 02:45:12;;;;;;;1.00;1.00;;;;;;;19.84;50.89;96358.59;4943632;29;20204;-29
2023/04/15 02:47:43;;;;;;;1.40;1.30;;;;;;;19.82;51.38;96353.47;4945919;29;20205;-30
2023/04/15 02:50:11;;;;;;;1.40;1.30;;;;;;;19.84;51.08;96356.88;4948010;28;20215;-30
2023/04/15 02:52:41;;;;;;;1.53;1.43;;;;;;;19.84;51.07;96361.97;4946679;29;20628;-30
2023/04/15 02:55:08;;;;;;;1.40;1.30;;;;;;;19.85;51.08;96360.31;4948562;29;20310;-30
2023/04/15 02:57:39;;;;;;;1.40;1.30;;;;;;;19.84;51.02;96350.94;4953680;28;20294;-29
2023/04/15 03:00:08;;;;;;;1.60;1.50;;;;;;;19.77;51.00;96346.56;4951158;28;20223;-30
2023/04/15 03:02:35;;;;;;;2.60;1.33;;;;;;;19.85;51.10;96355.19;4949556;28;20204;-29
2023/04/15 03:05:03;;;;;;;1.50;1.40;;;;;;;19.79;50.89;96352.53;4955487;28;20200;-30
2023/04/15 03:07:29;;;;;;;1.67;1.50;;;;;;;19.84;51.38;96364.53;4956764;29;20292;-28
2023/04/15 03:09:56;;;;;;;1.50;1.40;;;;;;;19.84;51.12;96356.03;4955324;28;20311;-30
2023/04/15 03:12:22;;;;;;;1.27;1.27;;;;;;;19.82;51.03;96356.03;4944791;29;20220;-30
2023/04/15 03:14:49;;;;;;;1.33;1.30;;;;;;;19.84;50.98;96361.16;4955933;29;20255;-30
2023/04/15 03:17:16;;;;;;;1.30;1.30;;;;;;;19.81;50.99;96351.72;4943442;29;20243;-30
2023/04/15 03:19:43;;;;;;;1.60;1.50;;;;;;;19.85;51.01;96368.81;4947935;28;20750;-30
2023/04/15 03:22:09;;;;;;;1.43;1.33;;;;;;;19.85;51.25;96355.19;4945518;29;20209;-30
2023/04/15 03:24:36;;;;;;;1.50;1.40;;;;;;;19.85;50.93;96357.75;4950309;29;20208;-28
2023/04/15 03:27:02;;;;;;;1.30;1.30;;;;;;;19.85;51.43;96355.19;4951987;28;20200;-29
2023/04/15 03:29:29;;;;;;;1.47;1.40;;;;;;;19.85;50.74;96353.53;4953559;28;20206;-28
2023/04/15 03:31:56;;;;;;;1.60;1.50;;;;;;;19.85;51.43;96358.63;4946972;29;20220;-30
2023/04/15 03:34:22;;;;;;;1.20;1.20;;;;;;;19.84;50.92;96351.78;4943556;29;20210;-29
2023/04/15 03:36:49;;;;;;;1.47;1.27;;;;;;;19.86;51.10;96356.91;4956202;29;20746;-30
2023/04/15 03:39:16;;;;;;;1.43;1.33;;;;;;;19.85;50.91;96355.19;4929590;29;20205;-30
2023/04/15 03:41:42;;;;;;;1.40;1.30;;;;;;;19.85;50.74;96347.56;4947645;28;20223;-30
2023/04/15 03:44:09;;;;;;;1.37;1.30;;;;;;;19.85;50.91;96352.66;4948609;28;20208;-29
2023/04/15 03:46:35;;;;;;;1.33;1.33;;;;;;;19.85;50.97;96348.44;4944614;29;20629;-30
2023/04/15 03:49:02;;;;;;;1.33;1.27;;;;;;;19.85;50.82;96350.09;4938849;29;20236;-27
2023/04/15 03:51:30;;;;;;;1.60;1.50;;;;;;;19.83;51.08;96347.53;4940961;29;20582;-27
2023/04/15 03:53:57;;;;;;;1.20;1.20;;;;;;;19.83;50.75;96350.06;4954090;29;20204;-27
2023/04/15 03:56:24;;;;;;;1.30;1.30;;;;;;;19.82;50.88;96350.06;4940480;29;20212;-27
2023/04/15 03:58:50;;;;;;;1.43;1.33;;;;;;;19.83;50.85;96352.63;4953801;29;20227;-27
2023/04/15 04:01:17;;;;;;;1.83;1.57;;;;;;;19.83;50.89;96344.97;4946418;29;20212;-27
2023/04/15 04:03:44;;;;;;;1.60;1.50;;;;;;;19.83;50.91;96350.06;4955340;29;20204;-27
2023/04/15 04:06:11;;;;;;;1.40;1.30;;;;;;;19.82;51.08;96353.47;4931951;29;20271;-27
2023/04/15 04:08:38;;;;;;;1.43;1.33;;;;;;;19.82;50.96;96356.03;4952386;29;20303;-27
2023/04/15 04:11:05;;;;;;;1.50;1.40;;;;;;;19.83;51.00;96346.66;4944722;28;20311;-27
2023/04/15 04:13:33;;;;;;;1.57;1.47;;;;;;;19.82;51.00;96347.50;4950115;28;20240;-27
2023/04/15 04:15:59;;;;;;;1.67;1.57;;;;;;;19.83;50.75;96349.22;4950019;29;20696;-26
2023/04/15 04:18:26;;;;;;;1.70;1.60;;;;;;;19.82;51.49;96347.50;4953629;28;20204;-27
2023/04/15 04:20:52;;;;;;;2.30;1.70;;;;;;;19.83;51.21;96349.22;4954649;29;20226;-27
2023/04/15 04:23:19;;;;;;;1.60;1.50;;;;;;;19.83;51.00;96351.75;4947010;29;20236;-28
2023/04/15 04:25:46;;;;;;;1.50;1.40;;;;;;;19.82;51.34;96356.03;4947042;29;20232;-27
2023/04/15 04:28:13;;;;;;;1.43;1.33;;;;;;;19.84;50.92;96356.03;4954263;29;20251;-27
2023/04/15 04:30:39;;;;;;;1.47;1.37;;;;;;;19.81;51.29;96351.72;4953122;28;20224;-27
2023/04/15 04:33:06;;;;;;;1.70;1.60;;;;;;;19.83;51.11;96362.81;4952857;29;20308;-27
2023/04/15 04:35:33;;;;;;;1.70;1.60;;;;;;;19.83;50.98;96357.72;4947136;28;20653;-27
2023/04/15 04:38:00;;;;;;;1.50;1.40;;;;;;;19.83;51.00;96360.28;4937699;29;20676;-27
2023/04/15 04:40:27;;;;;;;1.37;1.30;;;;;;;19.84;50.86;96368.78;4951409;28;20221;-27
2023/04/15 04:42:53;;;;;;;1.50;1.40;;;;;;;19.84;50.98;96369.63;4953586;29;20200;-26
2023/04/15 04:45:20;;;;;;;1.50;1.40;;;;;;;19.83;51.05;96362.81;4933834;29;20229;-27
2023/04/15 04:47:47;;;;;;;1.30;1.30;;;;;;;19.84;51.21;96373.88;4947192;29;20204;-27
2023/04/15 04:50:13;;;;;;;1.50;1.40;;;;;;;19.82;51.38;96367.91;4934939;29;20224;-26
2023/04/15 04:52:40;;;;;;;1.40;1.30;;;;;;;19.85;51.26;96379.00;4932629;29;20620;-26
2023/04/15 04:55:07;;;;;;;1.47;1.37;;;;;;;19.84;51.08;96376.44;4950211;28;20205;-27
2023/04/15 04:57:38;;;;;;;1.53;1.43;;;;;;;19.83;50.71;96380.66;4949048;29;20579;-27
2023/04/15 05:00:07;;;;;;;1.40;1.30;;;;;;;19.84;50.99;96377.28;4944847;29;20624;-26
2023/04/15 05:02:34;;;;;;;1.53;1.43;;;;;;;19.85;50.96;96380.69;4950313;29;20200;-27
2023/04/15 05:05:00;;;;;;;1.50;1.40;;;;;;;19.84;51.00;96377.28;4948365;28;20205;-26
2023/04/15 05:07:27;;;;;;;1.57;1.47;;;;;;;19.84;50.65;96372.19;4954123;28;20639;-27
2023/04/15 05:09:53;;;;;;;1.37;1.30;;;;;;;19.83;51.31;96367.94;4947961;29;20787;-27
2023/04/15 05:12:20;;;;;;;1.70;1.60;;;;;;;19.83;51.00;96375.56;4951119;28;20225;-27
2023/04/15 05:14:47;;;;;;;1.40;1.30;;;;;;;19.82;51.10;96371.31;4931466;29;20285;-27
2023/04/15 05:17:14;;;;;;;1.70;1.60;;;;;;;19.85;50.76;96378.16;4949499;29;20208;-28
2023/04/15 05:19:40;;;;;;;1.50;1.40;;;;;;;19.83;50.87;96370.47;4953067;28;20682;-28
2023/04/15 05:22:07;;;;;;;1.60;1.50;;;;;;;19.84;51.02;96379.00;4952912;29;20575;-27
2023/04/15 05:24:33;;;;;;;1.70;1.60;;;;;;;19.84;51.04;96373.88;4951038;29;20663;-27
2023/04/15 05:27:01;;;;;;;1.70;1.60;;;;;;;19.82;50.96;96384.06;4948613;29;20232;-31
2023/04/15 05:29:27;;;;;;;1.50;1.40;;;;;;;19.83;50.77;96374.69;4953637;29;20235;-28
2023/04/15 05:31:54;;;;;;;1.50;1.40;;;;;;;19.83;51.02;96380.66;4939303;29;20268;-29
2023/04/15 05:34:21;;;;;;;1.70;1.60;;;;;;;19.82;50.96;96376.41;4931573;29;20259;-28
2023/04/15 05:36:48;;;;;;;1.70;1.60;;;;;;;19.79;51.21;96375.50;4949986;29;20201;-28
2023/04/15 05:39:15;;;;;;;1.40;1.30;;;;;;;19.83;50.71;96383.22;4948091;29;20200;-27
2023/04/15 05:41:41;;;;;;;1.30;1.30;;;;;;;19.83;51.13;96379.81;4944829;28;20227;-27
2023/04/15 05:44:08;;;;;;;1.60;1.50;;;;;;;19.83;51.20;96379.81;4942474;29;20263;-30
2023/04/15 05:46:35;;;;;;;1.63;1.53;;;;;;;19.82;51.10;96384.06;4943916;29;20653;-26
2023/04/15 05:49:01;;;;;;;1.70;1.60;;;;;;;19.77;51.00;96372.03;4935462;29;20224;-27
2023/04/15 05:51:28;;;;;;;1.53;1.43;;;;;;;19.82;51.17;96376.41;4934948;29;20229;-32
2023/04/15 05:53:55;;;;;;;1.30;1.23;;;;;;;19.80;50.77;96377.19;4935375;29;20208;-30
2023/04/15 05:56:22;;;;;;;1.50;1.40;;;;;;;19.77;50.98;96372.91;4936531;29;20215;-36
2023/04/15 05:58:48;;;;;;;1.50;1.40;;;;;;;19.82;51.22;96381.50;4936494;29;20623;-28
2023/04/15 06:01:17;;;;;;;1.70;1.60;;;;;;;19.77;51.06;96372.91;4936146;29;20741;-31
2023/04/15 06:03:44;;;;;;;1.50;1.40;;;;;;;19.73;51.20;96368.59;4940113;29;20652;-30
2023/04/15 06:06:11;;;;;;;1.37;1.30;;;;;;;19.81;51.02;96382.31;4920989;29;20295;-31
2023/04/15 06:08:37;;;;;;;1.80;1.70;;;;;;;19.81;50.65;96389.97;4937438;28;20694;-32
2023/04/15 06:11:04;;;;;;;1.70;1.60;;;;;;;19.81;50.92;96387.41;4936082;28;20275;-31
2023/04/15 06:13:31;;;;;;;1.50;1.40;;;;;;;19.82;51.04;96393.38;4920890;29;20653;-31
2023/04/15 06:15:58;;;;;;;1.60;1.50;;;;;;;19.81;50.67;96387.41;4921879;29;20216;-29
2023/04/15 06:18:25;;;;;;;1.57;1.47;;;;;;;19.84;50.83;96397.69;4921042;29;20205;-32
2023/04/15 06:20:52;;;;;;;1.37;1.30;;;;;;;19.78;50.52;96381.44;4939118;28;20348;-30
2023/04/15 06:23:18;;;;;;;1.60;1.50;;;;;;;19.71;50.93;96371.94;4920124;29;20216;-31
2023/04/15 06:25:45;;;;;;;1.60;1.50;;;;;;;19.84;50.97;96395.13;4938076;28;20212;-29
2023/04/15 06:28:12;;;;;;;1.60;1.50;;;;;;;19.82;51.36;96388.28;4939756;29;20275;-29
2023/04/15 06:30:38;;;;;;;1.80;1.70;;;;;;;19.83;51.01;96393.41;4935754;29;20226;-31
2023/04/15 06:33:06;;;;;;;1.70;1.60;;;;;;;19.83;50.17;96397.66;4938543;29;20271;-29
2023/04/15 06:35:32;;;;;;;2.47;2.10;;;;;;;19.84;49.26;96396.84;4936584;28;20263;-29
2023/04/15 06:37:59;;;;;;;3.00;2.80;;;;;;;19.80;48.70;96388.25;4936579;28;20213;-30
2023/04/15 06:40:26;;;;;;;5.33;3.10;;;;;;;19.81;48.15;96392.53;4939896;28;20310;-31
2023/04/15 06:42:53;;;;;;;3.17;2.83;;;;;;;19.82;47.91;96398.50;4937512;29;20212;-31
2023/04/15 06:45:20;;;;;;;3.83;3.10;;;;;;;19.77;48.08;96390.75;4920329;29;20231;-30
2023/04/15 06:47:46;;;;;;;4.10;3.67;;;;;;;19.74;48.18;96389.84;4938778;28;20200;-31
2023/04/15 06:50:13;;;;;;;3.90;3.60;;;;;;;19.80;47.58;96406.09;4938415;28;20235;-34
2023/04/15 06:52:40;;;;;;;6.33;3.90;;;;;;;19.79;46.86;96395.88;4935212;29;20312;-31
2023/04/15 06:55:07;;;;;;;10.30;3.77;;;;;;;19.76;46.94;96398.38;4934754;29;20294;-31
2023/04/15 06:57:34;;;;;;;4.53;3.73;;;;;;;19.74;46.69;96388.16;4920021;29;20223;-30
2023/04/15 07:00:01;;;;;;;5.90;3.67;;;;;;;19.77;46.74;96390.75;4940359;28;20247;-32
2023/04/15 07:02:27;;;;;;;3.80;3.50;;;;;;;19.74;46.64;96395.81;4935629;29;20671;-32
2023/04/15 07:04:54;;;;;;;9.47;4.13;;;;;;;19.77;46.98;96394.97;4939481;28;20215;-31
2023/04/15 07:07:21;;;;;;;4.43;3.90;;;;;;;19.76;46.50;96390.72;4935900;29;20509;-30
2023/04/15 07:09:47;;;;;;;4.40;3.93;;;;;;;19.74;46.49;96390.69;4948579;28;20213;-30
2023/04/15 07:12:14;;;;;;;4.63;4.00;;;;;;;19.76;46.90;96393.28;4939816;29;20681;-30
2023/04/15 07:14:40;;;;;;;5.37;4.07;;;;;;;19.76;46.72;96396.69;4938963;29;20215;-31
2023/04/15 07:17:08;;;;;;;6.00;4.10;;;;;;;19.74;46.45;96394.94;4948522;29;20767;-30
2023/04/15 07:19:34;;;;;;;4.10;3.70;;;;;;;19.76;45.39;96398.38;4948453;28;20209;-30
2023/04/15 07:22:02;;;;;;;3.90;3.57;;;;;;;19.71;45.20;96388.09;4951931;29;20204;-29
2023/04/15 07:24:29;;;;;;;4.43;4.03;;;;;;;19.69;45.19;96383.81;4932495;29;20686;-29
2023/04/15 07:26:57;;;;;;;4.20;3.90;;;;;;;19.73;45.62;96390.69;4942754;29;20676;-29
2023/04/15 07:29:26;;;;;;;4.37;3.97;;;;;;;19.68;45.62;96382.06;4945223;29;20216;-29
2023/04/15 07:31:53;;;;;;;5.10;4.00;;;;;;;19.71;45.58;96387.22;4946599;28;20254;-29
2023/04/15 07:34:19;;;;;;;4.33;3.93;;;;;;;19.72;46.18;96389.81;4947222;28;20234;-31
2023/04/15 07:36:49;;;;;;;8.40;4.40;;;;;;;19.72;46.47;96389.81;4945604;28;20213;-31
2023/04/15 07:39:16;;;;;;;4.63;4.13;;;;;;;19.74;46.55;96389.84;4943924;29;20212;-30
2023/04/15 07:41:43;;;;;;;4.00;3.60;;;;;;;19.69;46.65;96387.19;4947367;28;20220;-29
2023/04/15 07:44:10;;;;;;;4.93;3.80;;;;;;;19.73;46.41;96388.13;4946817;28;20715;-29
2023/04/15 07:46:37;;;;;;;4.97;3.83;;;;;;;19.73;46.14;96389.00;4952790;29;20201;-30
2023/04/15 07:49:04;;;;;;;4.00;3.60;;;;;;;19.68;45.91;96382.94;4949370;29;20731;-31
2023/04/15 07:51:31;;;;;;;4.40;4.00;;;;;;;19.72;45.51;96388.97;4946519;28;20630;-30
2023/04/15 07:53:58;;;;;;;5.80;4.00;;;;;;;19.71;45.05;96385.53;4951461;28;20224;-31
2023/04/15 07:56:25;;;;;;;7.33;3.60;;;;;;;19.72;45.68;96381.31;4948785;29;20639;-31
2023/04/15 07:58:52;;;;;;;3.67;3.33;;;;;;;19.72;45.88;96386.41;4947851;28;20201;-29
2023/04/15 08:01:18;;;;;;;3.97;3.57;;;;;;;19.69;46.66;96386.38;4946029;28;20224;-31
2023/04/15 08:03:45;;;;;;;4.07;3.43;;;;;;;19.72;46.83;96388.97;4952619;28;20662;-31
2023/04/15 08:06:12;;;;;;;5.40;3.43;;;;;;;19.69;47.32;96387.19;4947698;29;20325;-29
2023/04/15 08:08:38;;;;;;;4.50;3.27;;;;;;;19.73;48.08;96393.22;4950835;29;20726;-31
2023/04/15 08:11:05;;;;;;;3.53;3.23;;;;;;;19.70;47.23;96388.06;4948230;28;20679;-31
2023/04/15 08:13:32;;;;;;;3.57;3.17;;;;;;;19.73;47.22;96385.56;4916396;29;20260;-30
2023/04/15 08:16:24;;;;;;;3.27;2.90;;;;;;;19.62;47.90;96374.31;4954164;28;20207;-30
2023/04/15 08:18:51;;;;;;;4.53;3.07;;;;;;;19.73;48.07;96389.00;4933055;29;20287;-31
2023/04/15 08:21:18;;;;;;;2.93;2.73;;;;;;;19.70;48.19;96382.97;4949442;28;20254;-30
2023/04/15 08:23:46;;;;;;;3.40;2.80;;;;;;;19.63;48.31;96376.06;4948799;29;20666;-29
2023/04/15 08:26:13;;;;;;;3.20;2.70;;;;;;;19.75;48.23;96387.31;4946852;29;20207;-29
2023/04/15 08:28:40;;;;;;;2.77;2.57;;;;;;;19.76;48.47;96399.25;4939093;29;20344;-36
2023/04/15 08:31:07;;;;;;;3.50;3.00;;;;;;;19.74;48.49;96394.94;4937662;28;20252;-32
2023/04/15 08:33:34;;;;;;;2.80;2.60;;;;;;;19.67;48.51;96380.38;4937987;29;20386;-33
2023/04/15 08:36:00;;;;;;;2.63;2.43;;;;;;;19.78;48.58;96396.72;4937980;29;20217;-30
2023/04/15 08:38:27;;;;;;;2.97;2.77;;;;;;;19.77;48.54;96402.63;4940170;29;20235;-30
2023/04/15 08:40:53;;;;;;;3.10;2.60;;;;;;;19.71;49.05;96392.31;4940970;28;20247;-31
2023/04/15 08:43:27;;;;;;;2.50;2.30;;;;;;;19.73;48.63;96404.28;4922295;29;20208;-31
2023/04/15 08:45:54;;;;;;;2.43;2.20;;;;;;;19.77;48.73;96413.69;4921962;29;20639;-30
2023/04/15 08:48:23;;;;;;;2.57;2.37;;;;;;;19.61;48.66;96372.59;4938302;28;20208;-30
2023/04/15 08:50:49;;;;;;;2.87;2.60;;;;;;;19.77;48.97;96400.97;4941917;29;20323;-31
2023/04/15 08:53:16;;;;;;;3.13;2.43;;;;;;;19.72;48.79;96394.91;4938499;28;20221;-30
2023/04/15 08:55:44;;;;;;;2.40;2.20;;;;;;;19.66;48.78;96383.75;4924950;29;20640;-32
2023/04/15 08:58:12;;;;;;;2.33;2.07;;;;;;;19.74;48.87;96395.81;4927089;29;20227;-31
2023/04/15 09:00:39;;;;;;;2.67;2.47;;;;;;;19.78;48.90;96400.13;4936475;28;20615;-31
2023/04/15 09:03:06;;;;;;;2.57;2.23;;;;;;;19.72;49.02;96387.25;4941883;29;20215;-30
2023/04/15 09:05:33;;;;;;;3.10;2.57;;;;;;;19.79;49.10;96406.06;4919109;29;20220;-33
2023/04/15 09:08:01;;;;;;;2.87;2.20;;;;;;;19.79;49.21;96406.06;4939030;28;20220;-31
2023/04/15 09:10:28;;;;;;;2.53;2.33;;;;;;;19.79;48.96;96404.41;4936951;29;20259;-30
2023/04/15 09:12:55;;;;;;;2.30;2.10;;;;;;;19.71;49.18;96398.28;4936836;28;20229;-30
2023/04/15 09:15:23;;;;;;;2.30;2.10;;;;;;;19.74;49.00;96394.94;4942948;28;20294;-31
2023/04/15 09:17:50;;;;;;;2.30;2.10;;;;;;;19.79;49.21;96411.19;4937223;29;20267;-29
2023/04/15 09:20:20;;;;;;;1.97;1.73;;;;;;;19.81;49.20;96407.81;4937464;28;20670;-30
2023/04/15 09:22:47;;;;;;;2.30;2.10;;;;;;;19.46;49.22;96364.69;4936245;29;20209;-32
2023/04/15 09:25:13;;;;;;;2.27;2.07;;;;;;;19.80;49.23;96425.63;4938567;29;20205;-31
2023/04/15 09:27:50;;;;;;;1.93;1.83;;;;;;;19.72;49.20;96412.75;4944817;29;20223;-29
2023/04/15 09:30:17;;;;;;;2.37;2.20;;;;;;;19.80;49.14;96421.41;4948174;28;20248;-31
2023/04/15 09:32:48;;;;;;;2.20;2.00;;;;;;;19.79;49.33;96421.38;4934671;29;20284;-30
2023/04/15 09:35:15;;;;;;;2.10;1.90;;;;;;;19.81;49.23;96424.81;4950580;29;20208;-30
2023/04/15 09:37:42;;;;;;;1.97;1.87;;;;;;;19.68;48.93;96405.88;4950392;29;20636;-31
2023/04/15 09:40:09;;;;;;;1.93;1.83;;;;;;;19.80;49.31;96421.41;4952535;28;20231;-29
2023/04/15 09:42:36;;;;;;;2.50;2.10;;;;;;;19.80;49.29;96425.63;4917234;29;20207;-30
2023/04/15 09:45:12;;;;;;;2.10;1.90;;;;;;;19.79;49.46;96419.69;4946115;28;20200;-30
2023/04/15 09:47:38;;;;;;;1.83;1.73;;;;;;;19.79;49.61;96427.34;4944300;29;20210;-31
2023/04/15 09:50:05;;;;;;;2.10;2.00;;;;;;;19.79;49.41;96429.91;4949489;29;20608;-30
2023/04/15 09:52:32;;;;;;;2.00;1.90;;;;;;;19.80;49.87;96434.16;4951361;29;20218;-29
2023/04/15 09:54:59;;;;;;;1.80;1.70;;;;;;;19.72;49.51;96415.28;4941396;29;20326;-31
2023/04/15 09:57:33;;;;;;;2.07;1.87;;;;;;;19.81;49.38;96433.31;4944662;29;20232;-31
2023/04/15 10:00:00;;;;;;;2.10;1.90;;;;;;;19.80;49.65;96420.53;4933238;29;20310;-30
2023/04/15 10:02:26;;;;;;;2.03;1.73;;;;;;;19.80;49.46;96423.94;4949347;29;20695;-30
2023/04/15 10:04:53;;;;;;;1.70;1.60;;;;;;;19.81;49.82;96418.00;4920298;29;20212;-30
2023/04/15 10:07:21;;;;;;;1.70;1.60;;;;;;;19.71;49.52;96405.06;4935225;29;20251;-31
2023/04/15 10:09:48;;;;;;;1.73;1.63;;;;;;;19.80;49.62;96412.88;4947591;29;20208;-31
2023/04/15 10:12:17;;;;;;;2.20;2.10;;;;;;;19.79;49.40;96424.78;4948381;29;20232;-30
2023/04/15 10:14:44;;;;;;;1.90;1.80;;;;;;;19.75;49.45;96417.06;4929147;29;20220;-31
2023/04/15 10:17:14;;;;;;;1.87;1.73;;;;;;;19.79;49.40;96421.38;4935736;29;20684;-31
2023/04/15 10:19:40;;;;;;;2.27;1.90;;;;;;;19.74;49.35;96415.31;4931277;28;20300;-30
2023/04/15 10:22:07;;;;;;;1.97;1.87;;;;;;;19.79;49.84;96424.78;4944867;29;20204;-30
2023/04/15 10:24:34;;;;;;;1.90;1.80;;;;;;;19.79;49.62;96423.91;4948433;28;20209;-29
2023/04/15 10:27:02;;;;;;;1.70;1.60;;;;;;;19.75;49.70;96411.97;4953230;29;20370;-30
2023/04/15 10:29:32;;;;;;;1.50;1.40;;;;;;;19.81;49.87;96420.56;4917803;29;20262;-30
2023/04/15 10:31:58;;;;;;;1.73;1.63;;;;;;;19.74;49.68;96418.75;4936915;29;20201;-30
2023/04/15 10:34:25;;;;;;;1.63;1.53;;;;;;;19.80;49.63;96425.63;4931094;29;20220;-30
2023/04/15 10:36:55;;;;;;;1.87;1.60;;;;;;;19.82;49.67;96435.06;4935541;29;20287;-30
2023/04/15 10:39:39;;;;;;;1.80;1.70;;;;;;;19.83;49.60;96429.09;4933365;29;20218;-31
2023/04/15 10:42:15;;;;;;;1.80;1.70;;;;;;;19.82;49.58;96421.44;4948590;28;20287;-30
2023/04/15 10:44:43;;;;;;;1.90;1.60;;;;;;;19.81;49.78;96425.66;4948344;29;20669;-31
2023/04/15 10:47:11;;;;;;;1.70;1.60;;;;;;;19.83;49.72;96441.84;4933666;29;20212;-30
2023/04/15 10:49:48;;;;;;;2.00;1.80;;;;;;;19.79;49.72;96429.91;4934515;28;20671;-30
2023/04/15 10:52:16;;;;;;;1.80;1.70;;;;;;;19.79;49.61;96435.00;4946504;29;20663;-31
2023/04/15 10:54:43;;;;;;;1.73;1.50;;;;;;;19.84;49.59;96437.63;4947128;29;20224;-30
2023/04/15 10:57:14;;;;;;;1.83;1.73;;;;;;;19.84;49.62;96433.38;4949712;29;20295;-31
2023/04/15 11:00:03;;;;;;;1.63;1.53;;;;;;;19.83;49.76;96436.75;4947878;28;20196;-30
2023/04/15 11:02:46;;;;;;;1.80;1.70;;;;;;;19.84;49.75;96435.06;4947949;28;20207;-29
2023/04/15 11:05:14;;;;;;;2.90;1.50;;;;;;;19.78;49.68;96433.25;4948733;29;20231;-29
2023/04/15 11:07:49;;;;;;;1.77;1.67;;;;;;;19.80;49.53;96440.94;4952414;29;20208;-30
2023/04/15 11:10:16;;;;;;;1.90;1.80;;;;;;;19.82;49.69;96455.44;4947448;28;20237;-32
2023/04/15 11:12:47;;;;;;;1.83;1.73;;;;;;;19.84;51.01;96447.81;4945403;29;20197;-30
2023/04/15 11:15:39;;;;;;;2.47;1.60;;;;;;;19.84;50.07;96460.56;4943991;29;20734;-30
2023/04/15 11:18:09;;;;;;;3.67;1.67;;;;;;;19.75;50.07;96440.00;4944329;29;20557;-31
2023/04/15 11:20:36;;;;;;;4.27;1.80;;;;;;;19.80;50.07;96471.53;4950582;28;20294;-29
2023/04/15 11:23:03;;;;;;;2.23;1.70;;;;;;;19.85;49.96;96465.69;4950013;28;20296;-29
2023/04/15 11:25:41;;;;;;;3.00;1.90;;;;;;;19.81;50.00;96463.91;4955879;29;20200;-30
2023/04/15 11:28:09;;;;;;;3.50;2.00;;;;;;;19.82;49.72;96464.78;4938518;29;20201;-30
2023/04/15 11:30:36;;;;;;;3.10;1.90;;;;;;;19.87;49.90;96464.03;4954743;28;20230;-30
2023/04/15 11:33:04;;;;;;;3.77;2.20;;;;;;;19.88;49.71;96464.88;4930503;29;20204;-30
2023/04/15 11:35:31;;;;;;;2.10;1.90;;;;;;;19.86;49.74;96464.84;4955698;28;20255;-30